sensor_id;sensor_type;location;lat;lon;timestamp;P1;durP1;ratioP1;P2;durP2;ratioP2
14092;SDS011;7123;49.468;10.992;2024-02-16T00:01:50;6.37;;;3.57;;
14092;SDS011;7123;49.468;10.992;2024-02-16T00:04:16;4.37;;;3.83;;
14092;SDS011;7123;49.468;10.992;2024-02-16T00:06:43;3.90;;;3.50;;
14092;SDS011;7123;49.468;10.992;2024-02-16T00:09:10;4.30;;;3.90;;
14092;SDS011;7123;49.468;10.992;2024-02-16T00:11:37;4.10;;;3.70;;
14092;SDS011;7123;49.468;10.992;2024-02-16T00:14:04;5.80;;;3.70;;
14092;SDS011;7123;49.468;10.992;2024-02-16T00:16:30;3.80;;;3.37;;
14092;SDS011;7123;49.468;10.992;2024-02-16T00:18:57;4.13;;;3.67;;
14092;SDS011;7123;49.468;10.992;2024-02-16T00:21:24;4.00;;;3.33;;
14092;SDS011;7123;49.468;10.992;2024-02-16T00:23:51;3.97;;;3.57;;
14092;SDS011;7123;49.468;10.992;2024-02-16T00:26:18;5.00;;;3.70;;
14092;SDS011;7123;49.468;10.992;2024-02-16T00:28:45;4.20;;;3.53;;
14092;SDS011;7123;49.468;10.992;2024-02-16T00:31:12;4.73;;;3.47;;
14092;SDS011;7123;49.468;10.992;2024-02-16T00:33:39;4.80;;;3.60;;
14092;SDS011;7123;49.468;10.992;2024-02-16T00:36:08;3.57;;;3.27;;
14092;SDS011;7123;49.468;10.992;2024-02-16T00:38:36;4.90;;;3.03;;
14092;SDS011;7123;49.468;10.992;2024-02-16T00:41:03;3.60;;;3.30;;
14092;SDS011;7123;49.468;10.992;2024-02-16T00:43:31;3.57;;;3.27;;
14092;SDS011;7123;49.468;10.992;2024-02-16T00:45:58;3.90;;;3.30;;
14092;SDS011;7123;49.468;10.992;2024-02-16T00:48:24;4.00;;;3.40;;
14092;SDS011;7123;49.468;10.992;2024-02-16T00:50:51;4.67;;;3.60;;
14092;SDS011;7123;49.468;10.992;2024-02-16T00:53:18;3.60;;;3.17;;
14092;SDS011;7123;49.468;10.992;2024-02-16T00:55:45;5.00;;;3.40;;
14092;SDS011;7123;49.468;10.992;2024-02-16T00:58:13;3.60;;;3.30;;
14092;SDS011;7123;49.468;10.992;2024-02-16T01:00:39;3.73;;;3.10;;
14092;SDS011;7123;49.468;10.992;2024-02-16T01:03:06;5.60;;;3.50;;
14092;SDS011;7123;49.468;10.992;2024-02-16T01:05:33;4.27;;;3.47;;
14092;SDS011;7123;49.468;10.992;2024-02-16T01:08:01;4.50;;;2.97;;
14092;SDS011;7123;49.468;10.992;2024-02-16T01:10:28;4.63;;;3.47;;
14092;SDS011;7123;49.468;10.992;2024-02-16T01:12:55;5.53;;;3.50;;
14092;SDS011;7123;49.468;10.992;2024-02-16T01:15:22;3.80;;;3.43;;
14092;SDS011;7123;49.468;10.992;2024-02-16T01:17:49;3.97;;;3.60;;
14092;SDS011;7123;49.468;10.992;2024-02-16T01:20:16;4.63;;;3.33;;
14092;SDS011;7123;49.468;10.992;2024-02-16T01:22:43;3.83;;;3.47;;
14092;SDS011;7123;49.468;10.992;2024-02-16T01:25:09;3.77;;;3.47;;
14092;SDS011;7123;49.468;10.992;2024-02-16T01:27:36;3.70;;;3.40;;
14092;SDS011;7123;49.468;10.992;2024-02-16T01:30:03;3.63;;;3.30;;
14092;SDS011;7123;49.468;10.992;2024-02-16T01:32:30;3.73;;;3.30;;
14092;SDS011;7123;49.468;10.992;2024-02-16T01:34:57;5.37;;;3.60;;
14092;SDS011;7123;49.468;10.992;2024-02-16T01:37:24;3.90;;;2.93;;
14092;SDS011;7123;49.468;10.992;2024-02-16T01:39:51;3.80;;;3.30;;
14092;SDS011;7123;49.468;10.992;2024-02-16T01:42:19;3.50;;;3.20;;
14092;SDS011;7123;49.468;10.992;2024-02-16T01:44:46;3.67;;;3.10;;
14092;SDS011;7123;49.468;10.992;2024-02-16T01:47:12;3.67;;;3.37;;
14092;SDS011;7123;49.468;10.992;2024-02-16T01:49:40;5.43;;;3.00;;
14092;SDS011;7123;49.468;10.992;2024-02-16T01:52:07;3.33;;;3.10;;
14092;SDS011;7123;49.468;10.992;2024-02-16T01:54:33;3.60;;;3.30;;
14092;SDS011;7123;49.468;10.992;2024-02-16T01:57:00;3.50;;;3.20;;
14092;SDS011;7123;49.468;10.992;2024-02-16T01:59:28;3.40;;;3.10;;
14092;SDS011;7123;49.468;10.992;2024-02-16T02:01:55;4.73;;;2.90;;
14092;SDS011;7123;49.468;10.992;2024-02-16T02:04:22;5.40;;;2.97;;
14092;SDS011;7123;49.468;10.992;2024-02-16T02:06:49;4.00;;;3.40;;
14092;SDS011;7123;49.468;10.992;2024-02-16T02:09:15;4.00;;;3.27;;
14092;SDS011;7123;49.468;10.992;2024-02-16T02:11:42;3.10;;;2.90;;
14092;SDS011;7123;49.468;10.992;2024-02-16T02:14:10;3.70;;;3.40;;
14092;SDS011;7123;49.468;10.992;2024-02-16T02:16:37;3.80;;;3.17;;
14092;SDS011;7123;49.468;10.992;2024-02-16T02:19:20;4.77;;;3.80;;
14092;SDS011;7123;49.468;10.992;2024-02-16T02:21:47;3.77;;;3.30;;
14092;SDS011;7123;49.468;10.992;2024-02-16T02:24:14;4.27;;;3.10;;
14092;SDS011;7123;49.468;10.992;2024-02-16T02:26:40;5.57;;;3.43;;
14092;SDS011;7123;49.468;10.992;2024-02-16T02:29:07;3.20;;;3.00;;
14092;SDS011;7123;49.468;10.992;2024-02-16T02:31:34;3.07;;;2.77;;
14092;SDS011;7123;49.468;10.992;2024-02-16T02:34:01;3.00;;;2.80;;
14092;SDS011;7123;49.468;10.992;2024-02-16T02:36:28;3.50;;;3.20;;
14092;SDS011;7123;49.468;10.992;2024-02-16T02:38:55;3.50;;;3.20;;
14092;SDS011;7123;49.468;10.992;2024-02-16T02:41:21;4.80;;;2.93;;
14092;SDS011;7123;49.468;10.992;2024-02-16T02:43:48;3.40;;;2.80;;
14092;SDS011;7123;49.468;10.992;2024-02-16T02:46:15;5.30;;;3.20;;
14092;SDS011;7123;49.468;10.992;2024-02-16T02:48:43;5.50;;;3.53;;
14092;SDS011;7123;49.468;10.992;2024-02-16T02:51:17;3.53;;;3.23;;
14092;SDS011;7123;49.468;10.992;2024-02-16T02:53:44;4.37;;;3.67;;
14092;SDS011;7123;49.468;10.992;2024-02-16T02:56:10;5.60;;;3.70;;
14092;SDS011;7123;49.468;10.992;2024-02-16T02:58:40;3.47;;;3.17;;
14092;SDS011;7123;49.468;10.992;2024-02-16T03:01:07;4.13;;;3.70;;
14092;SDS011;7123;49.468;10.992;2024-02-16T03:03:35;5.77;;;3.50;;
14092;SDS011;7123;49.468;10.992;2024-02-16T03:06:02;4.60;;;3.33;;
14092;SDS011;7123;49.468;10.992;2024-02-16T03:08:30;4.07;;;3.03;;
14092;SDS011;7123;49.468;10.992;2024-02-16T03:10:57;4.00;;;3.43;;
14092;SDS011;7123;49.468;10.992;2024-02-16T03:13:27;6.23;;;3.73;;
14092;SDS011;7123;49.468;10.992;2024-02-16T03:15:54;3.80;;;3.50;;
14092;SDS011;7123;49.468;10.992;2024-02-16T03:18:20;5.70;;;3.70;;
14092;SDS011;7123;49.468;10.992;2024-02-16T03:20:48;4.17;;;3.60;;
14092;SDS011;7123;49.468;10.992;2024-02-16T03:23:16;4.17;;;3.33;;
14092;SDS011;7123;49.468;10.992;2024-02-16T03:25:44;5.80;;;3.50;;
14092;SDS011;7123;49.468;10.992;2024-02-16T03:28:13;5.90;;;3.67;;
14092;SDS011;7123;49.468;10.992;2024-02-16T03:30:41;4.63;;;3.30;;
14092;SDS011;7123;49.468;10.992;2024-02-16T03:33:09;4.00;;;3.30;;
14092;SDS011;7123;49.468;10.992;2024-02-16T03:35:36;4.40;;;3.60;;
14092;SDS011;7123;49.468;10.992;2024-02-16T03:38:03;5.13;;;3.17;;
14092;SDS011;7123;49.468;10.992;2024-02-16T03:40:31;3.03;;;2.83;;
14092;SDS011;7123;49.468;10.992;2024-02-16T03:42:58;4.93;;;3.30;;
14092;SDS011;7123;49.468;10.992;2024-02-16T03:45:25;3.73;;;3.30;;
14092;SDS011;7123;49.468;10.992;2024-02-16T03:47:55;3.30;;;3.00;;
14092;SDS011;7123;49.468;10.992;2024-02-16T03:50:22;3.57;;;3.00;;
14092;SDS011;7123;49.468;10.992;2024-02-16T03:52:49;3.70;;;3.17;;
14092;SDS011;7123;49.468;10.992;2024-02-16T03:55:16;3.20;;;2.90;;
14092;SDS011;7123;49.468;10.992;2024-02-16T03:57:42;3.63;;;2.80;;
14092;SDS011;7123;49.468;10.992;2024-02-16T04:00:09;3.90;;;3.07;;
14092;SDS011;7123;49.468;10.992;2024-02-16T04:02:41;3.37;;;2.80;;
14092;SDS011;7123;49.468;10.992;2024-02-16T04:05:08;3.27;;;2.97;;
14092;SDS011;7123;49.468;10.992;2024-02-16T04:07:35;3.53;;;3.23;;
14092;SDS011;7123;49.468;10.992;2024-02-16T04:10:02;3.30;;;2.83;;
14092;SDS011;7123;49.468;10.992;2024-02-16T04:12:29;3.40;;;2.70;;
14092;SDS011;7123;49.468;10.992;2024-02-16T04:14:56;2.97;;;2.77;;
14092;SDS011;7123;49.468;10.992;2024-02-16T04:17:23;3.10;;;2.80;;
14092;SDS011;7123;49.468;10.992;2024-02-16T04:19:50;4.67;;;3.07;;
14092;SDS011;7123;49.468;10.992;2024-02-16T04:22:17;2.50;;;2.30;;
14092;SDS011;7123;49.468;10.992;2024-02-16T04:24:44;4.17;;;3.00;;
14092;SDS011;7123;49.468;10.992;2024-02-16T04:27:10;3.87;;;3.00;;
14092;SDS011;7123;49.468;10.992;2024-02-16T04:29:37;2.97;;;2.73;;
14092;SDS011;7123;49.468;10.992;2024-02-16T04:32:04;7.80;;;3.30;;
14092;SDS011;7123;49.468;10.992;2024-02-16T04:34:31;6.57;;;3.03;;
14092;SDS011;7123;49.468;10.992;2024-02-16T04:36:58;3.20;;;2.90;;
14092;SDS011;7123;49.468;10.992;2024-02-16T04:39:24;3.00;;;2.80;;
14092;SDS011;7123;49.468;10.992;2024-02-16T04:41:51;8.00;;;3.30;;
14092;SDS011;7123;49.468;10.992;2024-02-16T04:44:19;4.87;;;3.20;;
14092;SDS011;7123;49.468;10.992;2024-02-16T04:46:46;3.73;;;3.43;;
14092;SDS011;7123;49.468;10.992;2024-02-16T04:49:13;3.87;;;3.50;;
14092;SDS011;7123;49.468;10.992;2024-02-16T04:51:40;4.20;;;3.50;;
14092;SDS011;7123;49.468;10.992;2024-02-16T04:54:07;3.27;;;2.97;;
14092;SDS011;7123;49.468;10.992;2024-02-16T04:56:34;4.97;;;3.80;;
14092;SDS011;7123;49.468;10.992;2024-02-16T04:59:01;4.13;;;3.80;;
14092;SDS011;7123;49.468;10.992;2024-02-16T05:01:28;4.17;;;3.73;;
14092;SDS011;7123;49.468;10.992;2024-02-16T05:03:55;4.57;;;4.13;;
14092;SDS011;7123;49.468;10.992;2024-02-16T05:06:23;4.37;;;3.97;;
14092;SDS011;7123;49.468;10.992;2024-02-16T05:08:50;6.43;;;3.97;;
14092;SDS011;7123;49.468;10.992;2024-02-16T05:11:17;5.27;;;4.33;;
14092;SDS011;7123;49.468;10.992;2024-02-16T05:13:44;5.30;;;4.37;;
14092;SDS011;7123;49.468;10.992;2024-02-16T05:16:11;7.77;;;4.60;;
14092;SDS011;7123;49.468;10.992;2024-02-16T05:18:38;4.63;;;4.13;;
14092;SDS011;7123;49.468;10.992;2024-02-16T05:21:06;5.00;;;4.40;;
14092;SDS011;7123;49.468;10.992;2024-02-16T05:23:33;5.67;;;3.90;;
14092;SDS011;7123;49.468;10.992;2024-02-16T05:26:00;5.13;;;4.30;;
14092;SDS011;7123;49.468;10.992;2024-02-16T05:28:27;4.53;;;4.13;;
14092;SDS011;7123;49.468;10.992;2024-02-16T05:30:55;4.27;;;3.83;;
14092;SDS011;7123;49.468;10.992;2024-02-16T05:33:23;5.83;;;4.23;;
14092;SDS011;7123;49.468;10.992;2024-02-16T05:35:50;5.53;;;3.90;;
14092;SDS011;7123;49.468;10.992;2024-02-16T05:38:21;6.40;;;4.30;;
14092;SDS011;7123;49.468;10.992;2024-02-16T05:40:59;6.93;;;4.60;;
14092;SDS011;7123;49.468;10.992;2024-02-16T05:43:26;4.70;;;3.93;;
14092;SDS011;7123;49.468;10.992;2024-02-16T05:45:53;6.57;;;4.27;;
14092;SDS011;7123;49.468;10.992;2024-02-16T05:48:20;4.27;;;3.87;;
14092;SDS011;7123;49.468;10.992;2024-02-16T05:50:48;9.47;;;5.07;;
14092;SDS011;7123;49.468;10.992;2024-02-16T05:53:15;6.60;;;4.97;;
14092;SDS011;7123;49.468;10.992;2024-02-16T05:55:42;5.03;;;4.50;;
14092;SDS011;7123;49.468;10.992;2024-02-16T05:58:10;6.87;;;4.33;;
14092;SDS011;7123;49.468;10.992;2024-02-16T06:00:38;5.97;;;4.33;;
14092;SDS011;7123;49.468;10.992;2024-02-16T06:03:05;4.47;;;4.07;;
14092;SDS011;7123;49.468;10.992;2024-02-16T06:05:32;5.03;;;4.53;;
14092;SDS011;7123;49.468;10.992;2024-02-16T06:07:59;5.20;;;4.37;;
14092;SDS011;7123;49.468;10.992;2024-02-16T06:10:26;5.70;;;5.00;;
14092;SDS011;7123;49.468;10.992;2024-02-16T06:12:53;6.00;;;4.67;;
14092;SDS011;7123;49.468;10.992;2024-02-16T06:15:20;6.57;;;5.40;;
14092;SDS011;7123;49.468;10.992;2024-02-16T06:17:48;5.50;;;4.53;;
14092;SDS011;7123;49.468;10.992;2024-02-16T06:20:16;5.40;;;4.90;;
14092;SDS011;7123;49.468;10.992;2024-02-16T06:22:46;4.90;;;4.40;;
14092;SDS011;7123;49.468;10.992;2024-02-16T06:25:14;4.60;;;4.20;;
14092;SDS011;7123;49.468;10.992;2024-02-16T06:27:41;5.53;;;4.83;;
14092;SDS011;7123;49.468;10.992;2024-02-16T06:30:08;6.07;;;4.67;;
14092;SDS011;7123;49.468;10.992;2024-02-16T06:32:39;4.60;;;4.20;;
14092;SDS011;7123;49.468;10.992;2024-02-16T06:35:09;5.23;;;4.60;;
14092;SDS011;7123;49.468;10.992;2024-02-16T06:37:37;8.23;;;4.97;;
14092;SDS011;7123;49.468;10.992;2024-02-16T06:40:05;7.17;;;4.90;;
14092;SDS011;7123;49.468;10.992;2024-02-16T06:42:35;5.73;;;5.13;;
14092;SDS011;7123;49.468;10.992;2024-02-16T06:45:03;5.90;;;4.83;;
14092;SDS011;7123;49.468;10.992;2024-02-16T06:47:31;7.57;;;5.87;;
14092;SDS011;7123;49.468;10.992;2024-02-16T06:49:58;8.93;;;5.70;;
14092;SDS011;7123;49.468;10.992;2024-02-16T06:52:25;6.47;;;5.77;;
14092;SDS011;7123;49.468;10.992;2024-02-16T06:54:52;8.30;;;5.33;;
14092;SDS011;7123;49.468;10.992;2024-02-16T06:57:19;6.20;;;5.60;;
14092;SDS011;7123;49.468;10.992;2024-02-16T06:59:46;7.00;;;5.43;;
14092;SDS011;7123;49.468;10.992;2024-02-16T07:02:13;6.43;;;5.50;;
14092;SDS011;7123;49.468;10.992;2024-02-16T07:04:41;6.07;;;5.47;;
14092;SDS011;7123;49.468;10.992;2024-02-16T07:07:08;6.50;;;5.43;;
14092;SDS011;7123;49.468;10.992;2024-02-16T07:09:35;8.53;;;5.30;;
14092;SDS011;7123;49.468;10.992;2024-02-16T07:12:02;8.70;;;5.40;;
14092;SDS011;7123;49.468;10.992;2024-02-16T07:14:29;7.03;;;5.60;;
14092;SDS011;7123;49.468;10.992;2024-02-16T07:16:56;7.83;;;5.33;;
14092;SDS011;7123;49.468;10.992;2024-02-16T07:19:23;7.73;;;5.67;;
14092;SDS011;7123;49.468;10.992;2024-02-16T07:21:51;8.97;;;6.03;;
14092;SDS011;7123;49.468;10.992;2024-02-16T07:24:18;8.73;;;5.80;;
14092;SDS011;7123;49.468;10.992;2024-02-16T07:26:45;15.60;;;7.00;;
14092;SDS011;7123;49.468;10.992;2024-02-16T07:29:12;7.97;;;6.10;;
14092;SDS011;7123;49.468;10.992;2024-02-16T07:31:42;6.70;;;5.27;;
14092;SDS011;7123;49.468;10.992;2024-02-16T07:34:09;8.73;;;6.43;;
14092;SDS011;7123;49.468;10.992;2024-02-16T07:36:38;6.97;;;6.27;;
14092;SDS011;7123;49.468;10.992;2024-02-16T07:39:05;7.63;;;6.70;;
14092;SDS011;7123;49.468;10.992;2024-02-16T07:41:33;12.10;;;6.47;;
14092;SDS011;7123;49.468;10.992;2024-02-16T07:43:59;8.47;;;6.13;;
14092;SDS011;7123;49.468;10.992;2024-02-16T07:46:26;8.10;;;6.77;;
14092;SDS011;7123;49.468;10.992;2024-02-16T07:48:53;8.37;;;6.43;;
14092;SDS011;7123;49.468;10.992;2024-02-16T07:51:20;8.70;;;6.70;;
14092;SDS011;7123;49.468;10.992;2024-02-16T07:53:46;11.70;;;7.03;;
14092;SDS011;7123;49.468;10.992;2024-02-16T07:56:14;7.57;;;6.83;;
14092;SDS011;7123;49.468;10.992;2024-02-16T07:58:41;11.20;;;7.27;;
14092;SDS011;7123;49.468;10.992;2024-02-16T08:01:13;13.23;;;6.40;;
14092;SDS011;7123;49.468;10.992;2024-02-16T08:03:43;8.30;;;5.73;;
14092;SDS011;7123;49.468;10.992;2024-02-16T08:06:10;10.23;;;6.60;;
14092;SDS011;7123;49.468;10.992;2024-02-16T08:08:38;8.73;;;6.30;;
14092;SDS011;7123;49.468;10.992;2024-02-16T08:11:05;8.23;;;6.90;;
14092;SDS011;7123;49.468;10.992;2024-02-16T08:13:31;7.37;;;6.67;;
14092;SDS011;7123;49.468;10.992;2024-02-16T08:15:58;8.33;;;7.43;;
14092;SDS011;7123;49.468;10.992;2024-02-16T08:18:25;9.30;;;7.00;;
14092;SDS011;7123;49.468;10.992;2024-02-16T08:20:52;9.87;;;7.87;;
14092;SDS011;7123;49.468;10.992;2024-02-16T08:23:19;11.47;;;7.37;;
14092;SDS011;7123;49.468;10.992;2024-02-16T08:25:46;9.07;;;7.47;;
14092;SDS011;7123;49.468;10.992;2024-02-16T08:28:13;10.07;;;6.93;;
14092;SDS011;7123;49.468;10.992;2024-02-16T08:30:40;9.20;;;7.00;;
14092;SDS011;7123;49.468;10.992;2024-02-16T08:33:10;8.53;;;7.33;;
14092;SDS011;7123;49.468;10.992;2024-02-16T08:35:39;10.23;;;7.67;;
14092;SDS011;7123;49.468;10.992;2024-02-16T08:38:06;10.03;;;7.67;;
14092;SDS011;7123;49.468;10.992;2024-02-16T08:40:37;10.10;;;7.67;;
14092;SDS011;7123;49.468;10.992;2024-02-16T08:43:05;8.70;;;6.93;;
14092;SDS011;7123;49.468;10.992;2024-02-16T08:45:33;10.57;;;7.83;;
14092;SDS011;7123;49.468;10.992;2024-02-16T08:48:00;9.00;;;7.77;;
14092;SDS011;7123;49.468;10.992;2024-02-16T08:50:30;9.50;;;6.83;;
14092;SDS011;7123;49.468;10.992;2024-02-16T08:52:57;10.77;;;7.47;;
14092;SDS011;7123;49.468;10.992;2024-02-16T08:55:23;11.53;;;8.30;;
14092;SDS011;7123;49.468;10.992;2024-02-16T08:57:50;7.87;;;7.03;;
14092;SDS011;7123;49.468;10.992;2024-02-16T09:00:18;10.97;;;7.30;;
14092;SDS011;7123;49.468;10.992;2024-02-16T09:02:45;8.17;;;6.77;;
14092;SDS011;7123;49.468;10.992;2024-02-16T09:05:12;9.27;;;7.10;;
14092;SDS011;7123;49.468;10.992;2024-02-16T09:07:40;9.37;;;7.40;;
14092;SDS011;7123;49.468;10.992;2024-02-16T09:10:07;9.43;;;7.17;;
14092;SDS011;7123;49.468;10.992;2024-02-16T09:12:34;9.40;;;7.43;;
14092;SDS011;7123;49.468;10.992;2024-02-16T09:15:01;7.70;;;6.87;;
14092;SDS011;7123;49.468;10.992;2024-02-16T09:17:28;9.50;;;7.80;;
14092;SDS011;7123;49.468;10.992;2024-02-16T09:19:55;10.10;;;8.07;;
14092;SDS011;7123;49.468;10.992;2024-02-16T09:22:22;10.07;;;7.80;;
14092;SDS011;7123;49.468;10.992;2024-02-16T09:25:03;8.63;;;6.73;;
14092;SDS011;7123;49.468;10.992;2024-02-16T09:27:30;9.27;;;7.33;;
14092;SDS011;7123;49.468;10.992;2024-02-16T09:29:57;10.00;;;7.27;;
14092;SDS011;7123;49.468;10.992;2024-02-16T09:32:24;9.67;;;7.67;;
14092;SDS011;7123;49.468;10.992;2024-02-16T09:34:51;8.70;;;6.93;;
14092;SDS011;7123;49.468;10.992;2024-02-16T09:37:20;10.77;;;7.27;;
14092;SDS011;7123;49.468;10.992;2024-02-16T09:39:47;9.90;;;7.27;;
14092;SDS011;7123;49.468;10.992;2024-02-16T09:42:14;8.80;;;6.83;;
14092;SDS011;7123;49.468;10.992;2024-02-16T09:44:42;7.67;;;6.93;;
14092;SDS011;7123;49.468;10.992;2024-02-16T09:47:11;9.77;;;7.23;;
14092;SDS011;7123;49.468;10.992;2024-02-16T09:49:40;10.93;;;7.70;;
14092;SDS011;7123;49.468;10.992;2024-02-16T09:52:08;8.60;;;7.33;;
14092;SDS011;7123;49.468;10.992;2024-02-16T09:54:39;7.77;;;6.60;;
14092;SDS011;7123;49.468;10.992;2024-02-16T09:57:06;8.60;;;7.00;;
14092;SDS011;7123;49.468;10.992;2024-02-16T09:59:33;10.13;;;7.70;;
14092;SDS011;7123;49.468;10.992;2024-02-16T10:02:01;10.70;;;7.47;;
14092;SDS011;7123;49.468;10.992;2024-02-16T10:04:28;9.13;;;7.00;;
14092;SDS011;7123;49.468;10.992;2024-02-16T10:06:59;10.90;;;7.90;;
14092;SDS011;7123;49.468;10.992;2024-02-16T10:09:28;8.80;;;6.97;;
14092;SDS011;7123;49.468;10.992;2024-02-16T10:12:01;10.93;;;7.17;;
14092;SDS011;7123;49.468;10.992;2024-02-16T10:14:27;8.97;;;7.67;;
14092;SDS011;7123;49.468;10.992;2024-02-16T10:17:01;11.07;;;7.90;;
14092;SDS011;7123;49.468;10.992;2024-02-16T10:19:29;10.57;;;7.03;;
14092;SDS011;7123;49.468;10.992;2024-02-16T10:22:12;10.87;;;6.83;;
14092;SDS011;7123;49.468;10.992;2024-02-16T10:24:40;10.13;;;7.47;;
14092;SDS011;7123;49.468;10.992;2024-02-16T10:27:15;7.40;;;6.60;;
14092;SDS011;7123;49.468;10.992;2024-02-16T10:29:44;8.60;;;7.00;;
14092;SDS011;7123;49.468;10.992;2024-02-16T10:32:12;7.70;;;6.57;;
14092;SDS011;7123;49.468;10.992;2024-02-16T10:34:40;9.67;;;6.40;;
14092;SDS011;7123;49.468;10.992;2024-02-16T10:37:08;8.13;;;6.60;;
14092;SDS011;7123;49.468;10.992;2024-02-16T10:39:35;7.43;;;6.17;;
14092;SDS011;7123;49.468;10.992;2024-02-16T10:42:05;10.20;;;6.93;;
14092;SDS011;7123;49.468;10.992;2024-02-16T10:44:32;7.63;;;6.70;;
14092;SDS011;7123;49.468;10.992;2024-02-16T10:47:01;8.50;;;7.50;;
14092;SDS011;7123;49.468;10.992;2024-02-16T10:49:28;8.57;;;6.50;;
14092;SDS011;7123;49.468;10.992;2024-02-16T10:51:56;8.07;;;6.50;;
14092;SDS011;7123;49.468;10.992;2024-02-16T10:54:26;9.70;;;5.97;;
14092;SDS011;7123;49.468;10.992;2024-02-16T10:56:57;7.63;;;6.43;;
14092;SDS011;7123;49.468;10.992;2024-02-16T10:59:25;7.93;;;6.63;;
14092;SDS011;7123;49.468;10.992;2024-02-16T11:02:01;8.13;;;7.33;;
14092;SDS011;7123;49.468;10.992;2024-02-16T11:04:37;8.57;;;7.50;;
14092;SDS011;7123;49.468;10.992;2024-02-16T11:07:11;9.40;;;7.70;;
14092;SDS011;7123;49.468;10.992;2024-02-16T11:09:43;7.60;;;6.90;;
14092;SDS011;7123;49.468;10.992;2024-02-16T11:12:13;8.37;;;6.20;;
14092;SDS011;7123;49.468;10.992;2024-02-16T11:14:45;12.07;;;7.17;;
14092;SDS011;7123;49.468;10.992;2024-02-16T11:17:14;10.43;;;6.37;;
14092;SDS011;7123;49.468;10.992;2024-02-16T11:19:46;8.23;;;7.07;;
14092;SDS011;7123;49.468;10.992;2024-02-16T11:22:15;9.17;;;6.97;;
14092;SDS011;7123;49.468;10.992;2024-02-16T11:24:44;9.63;;;6.50;;
14092;SDS011;7123;49.468;10.992;2024-02-16T11:27:22;8.67;;;6.60;;
14092;SDS011;7123;49.468;10.992;2024-02-16T11:29:49;10.77;;;6.27;;
14092;SDS011;7123;49.468;10.992;2024-02-16T11:32:20;7.70;;;6.43;;
14092;SDS011;7123;49.468;10.992;2024-02-16T11:34:47;7.87;;;7.00;;
14092;SDS011;7123;49.468;10.992;2024-02-16T11:37:15;8.00;;;6.30;;
14092;SDS011;7123;49.468;10.992;2024-02-16T11:39:42;10.67;;;6.67;;
14092;SDS011;7123;49.468;10.992;2024-02-16T11:42:12;8.47;;;6.70;;
14092;SDS011;7123;49.468;10.992;2024-02-16T11:44:50;7.47;;;6.10;;
14092;SDS011;7123;49.468;10.992;2024-02-16T11:47:22;7.77;;;5.97;;
14092;SDS011;7123;49.468;10.992;2024-02-16T11:50:02;9.37;;;6.20;;
14092;SDS011;7123;49.468;10.992;2024-02-16T11:52:30;9.00;;;6.53;;
14092;SDS011;7123;49.468;10.992;2024-02-16T11:54:58;9.83;;;7.13;;
14092;SDS011;7123;49.468;10.992;2024-02-16T11:57:30;8.27;;;6.70;;
14092;SDS011;7123;49.468;10.992;2024-02-16T11:59:57;9.03;;;7.03;;
14092;SDS011;7123;49.468;10.992;2024-02-16T12:02:24;7.87;;;6.60;;
14092;SDS011;7123;49.468;10.992;2024-02-16T12:05:00;7.53;;;6.30;;
14092;SDS011;7123;49.468;10.992;2024-02-16T12:07:30;6.27;;;5.67;;
14092;SDS011;7123;49.468;10.992;2024-02-16T12:09:59;7.50;;;6.87;;
14092;SDS011;7123;49.468;10.992;2024-02-16T12:12:27;8.40;;;5.90;;
14092;SDS011;7123;49.468;10.992;2024-02-16T12:14:54;8.10;;;6.00;;
14092;SDS011;7123;49.468;10.992;2024-02-16T12:17:22;7.77;;;6.40;;
14092;SDS011;7123;49.468;10.992;2024-02-16T12:19:49;11.73;;;6.63;;
14092;SDS011;7123;49.468;10.992;2024-02-16T12:22:18;6.07;;;5.47;;
14092;SDS011;7123;49.468;10.992;2024-02-16T12:24:46;8.70;;;6.03;;
14092;SDS011;7123;49.468;10.992;2024-02-16T12:27:14;6.60;;;5.97;;
14092;SDS011;7123;49.468;10.992;2024-02-16T12:29:41;6.37;;;5.77;;
14092;SDS011;7123;49.468;10.992;2024-02-16T12:32:08;6.80;;;5.73;;
14092;SDS011;7123;49.468;10.992;2024-02-16T12:34:38;7.83;;;6.20;;
14092;SDS011;7123;49.468;10.992;2024-02-16T12:37:05;10.27;;;7.27;;
14092;SDS011;7123;49.468;10.992;2024-02-16T12:39:37;8.17;;;5.90;;
14092;SDS011;7123;49.468;10.992;2024-02-16T12:42:05;9.10;;;6.87;;
14092;SDS011;7123;49.468;10.992;2024-02-16T12:44:32;7.73;;;6.10;;
14092;SDS011;7123;49.468;10.992;2024-02-16T12:46:59;7.57;;;6.47;;
14092;SDS011;7123;49.468;10.992;2024-02-16T12:49:25;7.30;;;5.90;;
14092;SDS011;7123;49.468;10.992;2024-02-16T12:51:52;7.07;;;6.03;;
14092;SDS011;7123;49.468;10.992;2024-02-16T12:54:20;6.40;;;5.80;;
14092;SDS011;7123;49.468;10.992;2024-02-16T12:56:48;8.37;;;6.77;;
14092;SDS011;7123;49.468;10.992;2024-02-16T12:59:18;6.60;;;6.00;;
14092;SDS011;7123;49.468;10.992;2024-02-16T13:01:45;6.33;;;5.73;;
14092;SDS011;7123;49.468;10.992;2024-02-16T13:04:13;6.90;;;6.10;;
14092;SDS011;7123;49.468;10.992;2024-02-16T13:06:47;12.40;;;6.27;;
14092;SDS011;7123;49.468;10.992;2024-02-16T13:09:15;10.40;;;6.57;;
14092;SDS011;7123;49.468;10.992;2024-02-16T13:11:42;7.77;;;6.40;;
14092;SDS011;7123;49.468;10.992;2024-02-16T13:14:09;10.07;;;6.40;;
14092;SDS011;7123;49.468;10.992;2024-02-16T13:16:35;10.87;;;6.53;;
14092;SDS011;7123;49.468;10.992;2024-02-16T13:19:02;6.30;;;5.70;;
14092;SDS011;7123;49.468;10.992;2024-02-16T13:21:29;6.50;;;5.40;;
14092;SDS011;7123;49.468;10.992;2024-02-16T13:23:56;7.40;;;6.07;;
14092;SDS011;7123;49.468;10.992;2024-02-16T13:26:23;8.63;;;5.67;;
14092;SDS011;7123;49.468;10.992;2024-02-16T13:28:50;6.23;;;5.60;;
14092;SDS011;7123;49.468;10.992;2024-02-16T13:31:18;8.33;;;5.87;;
14092;SDS011;7123;49.468;10.992;2024-02-16T13:33:45;8.93;;;6.20;;
14092;SDS011;7123;49.468;10.992;2024-02-16T13:36:12;7.13;;;6.27;;
14092;SDS011;7123;49.468;10.992;2024-02-16T13:38:39;5.70;;;5.30;;
14092;SDS011;7123;49.468;10.992;2024-02-16T13:41:05;7.37;;;5.77;;
14092;SDS011;7123;49.468;10.992;2024-02-16T13:43:32;6.57;;;5.97;;
14092;SDS011;7123;49.468;10.992;2024-02-16T13:45:59;8.80;;;6.20;;
14092;SDS011;7123;49.468;10.992;2024-02-16T13:48:26;10.00;;;5.43;;
14092;SDS011;7123;49.468;10.992;2024-02-16T13:50:53;8.70;;;6.53;;
14092;SDS011;7123;49.468;10.992;2024-02-16T13:53:22;8.10;;;5.57;;
14092;SDS011;7123;49.468;10.992;2024-02-16T13:55:49;6.83;;;6.03;;
14092;SDS011;7123;49.468;10.992;2024-02-16T13:58:16;6.93;;;5.80;;
14092;SDS011;7123;49.468;10.992;2024-02-16T14:00:43;7.07;;;5.37;;
14092;SDS011;7123;49.468;10.992;2024-02-16T14:03:11;8.00;;;5.83;;
14092;SDS011;7123;49.468;10.992;2024-02-16T14:05:40;9.20;;;5.40;;
14092;SDS011;7123;49.468;10.992;2024-02-16T14:08:08;9.20;;;5.43;;
14092;SDS011;7123;49.468;10.992;2024-02-16T14:10:37;8.27;;;5.60;;
14092;SDS011;7123;49.468;10.992;2024-02-16T14:13:04;7.87;;;6.00;;
14092;SDS011;7123;49.468;10.992;2024-02-16T14:15:31;6.73;;;6.03;;
14092;SDS011;7123;49.468;10.992;2024-02-16T14:17:59;5.27;;;4.87;;
14092;SDS011;7123;49.468;10.992;2024-02-16T14:20:36;7.80;;;4.93;;
14092;SDS011;7123;49.468;10.992;2024-02-16T14:23:04;5.57;;;4.73;;
14092;SDS011;7123;49.468;10.992;2024-02-16T14:25:34;7.13;;;4.93;;
14092;SDS011;7123;49.468;10.992;2024-02-16T14:28:03;7.23;;;4.90;;
14092;SDS011;7123;49.468;10.992;2024-02-16T14:30:30;5.13;;;4.70;;
14092;SDS011;7123;49.468;10.992;2024-02-16T14:32:59;8.47;;;5.07;;
14092;SDS011;7123;49.468;10.992;2024-02-16T14:35:26;9.57;;;6.37;;
14092;SDS011;7123;49.468;10.992;2024-02-16T14:37:53;7.53;;;5.67;;
14092;SDS011;7123;49.468;10.992;2024-02-16T14:40:19;6.60;;;5.60;;
14092;SDS011;7123;49.468;10.992;2024-02-16T14:42:46;5.67;;;4.90;;
14092;SDS011;7123;49.468;10.992;2024-02-16T14:45:13;10.07;;;5.30;;
14092;SDS011;7123;49.468;10.992;2024-02-16T14:47:47;7.80;;;6.00;;
14092;SDS011;7123;49.468;10.992;2024-02-16T14:50:15;6.27;;;5.60;;